Latest Weather Observations for Argyle

IDD60801

Issued at 9:01 pm CST Thursday 5 March 2015 (issued every 30 minutes, with the page automatically refreshed every 10 minutes)

About weather observations | Map of weather stations | Latest weather observations for NT | Other Formats
Station Details ID: 002064 Name: ARGYLE AERODROME Lat: -16.64 Lon: 128.45 Height: 164.0 m
Data from the previous 72 hours. | See also: Recent months at Argyle
Date/Time
CST
Temp
°C
App
Temp
°C
Dew
Point
Rel
Hum
%
Delta-T
°C
Wind Press
QNH
hPa
Press
MSL
hPa
Rain
since 9 am
mm
Dir
 
Spd
km/h
Gust
km/h
Spd
kts
Gust
kts
05/08:30pm 32.8 34.9 21.7 52 7.6 SE 13 17 7 9 1008.9 - 0.0
05/08:00pm 33.0 36.8 22.7 54 7.1 SE 7 9 4 5 1008.4 - 0.0
05/07:00pm 34.4 37.4 21.9 48 8.6 SE 9 15 5 8 1007.4 - 0.0
05/06:30pm 34.9 38.0 22.2 47 8.8 E 9 13 5 7 1007.3 - 0.0
05/06:00pm 35.4 38.5 22.1 46 9.2 E 9 13 5 7 1007.2 - 0.0
05/05:30pm 35.9 37.7 21.8 44 9.7 SE 15 22 8 12 1007.0 - 0.0
05/05:00pm 37.2 38.9 20.2 37 11.5 E 11 19 6 10 1006.8 - 0.0
05/04:30pm 36.1 37.2 21.2 42 10.2 ENE 17 22 9 12 1006.8 1005.6 0.0
05/04:00pm 37.0 37.0 19.8 36 11.6 ENE 19 30 10 16 1007.1 - 0.0
05/03:00pm 37.2 38.4 20.0 36 11.6 SE 13 24 7 13 1007.4 - 0.0
05/02:30pm 37.1 38.5 20.3 37 11.4 SSE 13 22 7 12 1008.0 - 0.0
05/02:00pm 37.4 38.6 19.9 36 11.8 NE 13 24 7 13 1008.6 - 0.0
05/01:30pm 37.1 37.7 19.5 35 11.8 SE 15 26 8 14 1009.3 1008.1 0.0
05/01:00pm 36.4 39.2 20.8 40 10.6 SSW 7 15 4 8 1009.9 - 0.0
05/12:30pm 35.6 37.5 20.5 41 10.2 E 11 20 6 11 1010.5 - 0.0
05/12:00pm 35.9 38.8 21.1 42 10.1 ESE 7 11 4 6 1010.7 - 0.0
05/11:00am 34.4 38.5 22.9 51 8.0 ENE 6 15 3 8 1011.1 - 0.0
05/10:30am 32.7 36.6 22.9 56 6.8 NNW 7 11 4 6 1011.2 1010.0 0.0
05/10:00am 32.6 37.1 23.6 59 6.3 E 6 9 3 5 1011.4 - 0.0
05/09:30am 31.3 35.5 23.4 63 5.5 NE 7 13 4 7 1011.5 - 0.0
05/09:00am 30.8 34.8 23.1 63 5.3 NNE 7 11 4 6 1011.3 - 0.0
05/08:30am 29.3 34.4 24.1 73 3.6 N 4 7 2 4 1011.2 - 0.0
05/08:00am 28.3 33.4 24.1 78 2.9 W 4 7 2 4 1010.8 - 0.0
05/07:00am 26.6 31.4 24.2 87 1.7 SSE 6 7 3 4 1010.1 - 0.0
05/06:30am 26.5 31.3 24.2 87 1.6 S 6 7 3 4 1009.8 - 0.0
05/06:00am 26.5 30.6 24.0 86 1.7 S 9 13 5 7 1009.5 - 0.0
05/05:30am 26.3 30.9 24.1 88 1.5 SSW 7 9 4 5 1009.2 - 0.0
05/05:00am 26.3 30.9 23.8 86 1.7 S 6 11 3 6 1009.0 - 0.0
05/04:30am 26.2 30.3 23.9 87 1.6 S 9 13 5 7 1008.8 1007.6 0.0
05/03:30am 26.2 29.2 23.4 84 1.9 S 13 20 7 11 1008.9 - 0.0
05/03:00am 26.8 30.3 23.6 82 2.2 S 11 15 6 8 1009.4 - 0.0
05/02:30am 27.3 31.4 23.2 78 2.8 S 7 11 4 6 1009.4 - 0.0
05/02:00am 27.5 31.4 23.0 76 3.1 S 7 11 4 6 1009.5 - 0.0
05/01:00am 28.1 32.3 23.5 76 3.2 SW 7 11 4 6 1010.1 - 0.0
05/12:30am 28.0 31.2 23.0 74 3.4 S 11 17 6 9 1010.6 - 0.0
05/12:00am 29.1 29.3 22.0 65 4.8 SE 24 44 13 24 1011.2 - 0.0
 
Date/Time
CST
Temp
°C
App
Temp
°C
Dew
Point
Rel
Hum
%
Delta-T
°C
Wind Press
QNH
hPa
Press
MSL
hPa
Rain
since 9 am
mm
Dir
 
Spd
km/h
Gust
km/h
Spd
kts
Gust
kts
04/11:30pm 31.1 34.9 22.7 61 5.8 WNW 7 9 4 5 1010.6 - 0.0
04/11:00pm 31.4 34.6 22.4 59 6.2 NNW 9 13 5 7 1010.5 - 0.0
04/10:30pm 31.7 34.3 22.0 56 6.6 N 11 15 6 8 1010.3 1009.1 0.0
04/10:00pm 31.9 34.9 21.9 55 6.8 NNW 9 13 5 7 1010.2 - 0.0
04/09:30pm 32.4 34.9 21.7 53 7.3 N 11 15 6 8 1010.0 - 0.0
04/09:00pm 32.4 34.9 21.7 53 7.3 NNE 11 15 6 8 1009.6 - 0.0
04/08:30pm 32.8 35.3 21.1 50 7.9 NNE 9 13 5 7 1008.9 - 0.0
04/08:00pm 33.1 35.1 20.8 48 8.3 NNE 11 17 6 9 1008.5 - 0.0
04/07:30pm 33.3 35.7 20.9 48 8.4 NNE 9 13 5 7 1007.9 1006.7 0.0
04/07:00pm 33.9 35.2 20.2 44 9.2 NE 13 17 7 9 1007.4 - 0.0
04/06:30pm 34.7 35.5 19.8 41 10.0 NNE 15 22 8 12 1007.1 - 0.0
04/06:00pm 35.5 36.3 19.9 40 10.5 NE 15 20 8 11 1006.9 - 0.0
04/05:30pm 35.7 35.6 19.6 39 10.8 NNE 19 24 10 13 1006.9 - 0.0
04/05:00pm 36.0 35.8 19.4 37 11.1 NE 19 30 10 16 1006.9 - 0.0
04/04:30pm 36.1 36.2 19.9 38 10.9 NE 19 28 10 15 1007.0 1005.8 0.0
04/04:00pm 36.2 36.5 20.4 39 10.7 NE 19 30 10 16 1007.3 - 0.0
04/03:30pm 36.2 36.4 20.6 40 10.6 NE 20 30 11 16 1007.3 - 0.0
04/03:00pm 35.8 35.5 20.4 40 10.4 NNE 22 33 12 18 1007.7 - 0.0
04/02:30pm 35.6 36.4 21.4 43 9.7 NE 19 33 10 18 1008.0 - 0.0
04/02:00pm 35.2 36.7 22.0 46 9.1 NE 17 26 9 14 1008.3 - 0.0
04/01:30pm 34.3 36.0 22.4 50 8.2 NE 17 26 9 14 1008.7 1007.5 0.0
04/01:00pm 33.9 35.8 22.8 52 7.7 NE 17 30 9 16 1009.2 - 0.0
04/12:30pm 33.1 34.9 23.2 56 6.9 NNE 19 26 10 14 1009.7 - 0.0
04/12:00pm 34.0 35.9 23.4 54 7.4 NE 19 28 10 15 1009.8 - 0.0
04/11:30am 33.1 33.8 23.0 55 7.0 ENE 24 32 13 17 1009.9 - 0.0
04/11:00am 32.5 33.4 22.6 56 6.8 NNE 22 30 12 16 1009.8 - 0.0
04/10:30am 32.5 33.9 22.8 56 6.7 NNE 20 28 11 15 1009.9 1008.7 0.0
04/10:00am 32.2 33.6 22.6 57 6.6 NNE 19 28 10 15 1010.0 - 0.0
04/09:30am 30.7 34.8 23.3 64 5.1 NE 7 13 4 7 1009.8 - 0.0
04/09:00am 30.3 33.9 23.7 68 4.6 N 11 15 6 8 1009.6 - 0.0
04/08:30am 29.4 33.4 23.8 72 3.9 N 9 11 5 6 1009.4 - 0.0
04/08:00am 28.8 34.7 24.1 76 3.3 CALM 0 0 0 0 1009.1 - 0.0
04/07:30am 27.6 33.6 24.3 82 2.3 CALM 0 0 0 0 1008.6 1007.4 0.0
04/07:00am 26.9 33.1 24.6 87 1.6 CALM 0 0 0 0 1008.0 - 0.0
04/06:30am 27.3 32.2 24.3 84 2.1 N 6 7 3 4 1007.7 - 0.0
04/06:00am 27.3 33.3 24.3 84 2.1 CALM 0 0 0 0 1007.3 - 0.0
04/05:30am 27.8 32.3 23.9 79 2.7 N 7 7 4 4 1007.4 - 0.0
04/05:00am 28.1 32.9 24.2 79 2.7 WNW 6 7 3 4 1007.5 - 0.0
04/04:30am 28.3 34.0 23.7 76 3.2 CALM 0 0 0 0 1007.4 1006.2 0.0
04/04:00am 28.7 34.1 23.3 72 3.7 CALM 0 6 0 3 1007.3 - 0.0
04/03:30am 28.9 33.1 23.1 71 4.0 WSW 6 6 3 3 1007.0 - 0.0
04/03:00am 28.7 32.9 23.2 72 3.8 WSW 6 7 3 4 1007.2 - 0.0
04/02:30am 28.6 33.2 23.2 72 3.7 NW 4 9 2 5 1007.2 - 0.0
04/02:00am 28.8 33.0 23.1 71 3.9 E 6 7 3 4 1007.4 - 0.0
04/01:30am 28.6 33.0 23.5 74 3.5 E 6 7 3 4 1007.8 1006.6 0.0
04/01:00am 28.9 32.6 23.2 71 3.9 E 9 11 5 6 1008.0 - 0.0
04/12:30am 29.0 33.4 23.8 73 3.6 ESE 7 9 4 5 1008.2 - 0.0
04/12:00am 29.3 34.0 24.3 74 3.5 ENE 7 7 4 4 1008.6 - 0.0
 
Date/Time
CST
Temp
°C
App
Temp
°C
Dew
Point
Rel
Hum
%
Delta-T
°C
Wind Press
QNH
hPa
Press
MSL
hPa
Rain
since 9 am
mm
Dir
 
Spd
km/h
Gust
km/h
Spd
kts
Gust
kts
03/11:30pm 29.6 34.4 24.2 73 3.8 ESE 6 7 3 4 1008.3 - 0.0
03/11:00pm 30.2 34.5 23.6 67 4.6 SSE 7 9 4 5 1008.1 - 0.0
03/10:30pm 31.2 34.5 21.8 57 6.4 E 7 9 4 5 1007.9 1006.7 0.0
03/10:00pm 31.5 34.3 21.5 55 6.8 NE 9 13 5 7 1007.9 - 0.0
03/09:30pm 31.6 34.3 21.4 54 6.9 NE 9 11 5 6 1007.5 - 0.0
03/09:00pm 31.7 34.2 21.0 53 7.2 NE 9 13 5 7 1007.5 - 0.0
03/08:30pm 32.0 34.0 20.7 51 7.6 NNE 11 15 6 8 1007.1 - 0.0
03/08:00pm 32.1 33.7 20.7 51 7.7 NNE 13 15 7 8 1006.7 - 0.0
03/07:30pm 32.6 33.7 20.4 48 8.2 NE 15 20 8 11 1006.0 1004.7 0.0
03/07:00pm 33.4 33.8 19.8 44 9.1 NE 17 26 9 14 1005.6 - 0.0
03/06:30pm 34.1 34.8 19.7 42 9.6 NE 15 26 8 14 1005.2 - 0.0
03/06:00pm 34.6 35.3 20.4 43 9.6 NE 17 24 9 13 1005.0 - 0.0
03/05:30pm 35.1 35.9 20.6 42 9.8 NNE 17 22 9 12 1004.8 - 0.0
03/05:00pm 35.4 36.7 20.8 42 9.9 NE 15 22 8 12 1004.7 - 0.0
03/04:30pm 35.2 38.1 21.8 45 9.2 NNE 9 17 5 9 1004.8 1003.6 0.0
03/04:00pm 35.7 37.1 21.0 42 10.0 E 15 20 8 11 1005.0 - 0.0
03/03:30pm 36.2 37.3 21.3 42 10.2 NE 17 24 9 13 1005.3 - 0.0
03/03:00pm 35.7 36.4 21.2 43 9.9 ENE 19 30 10 16 1005.6 - 0.0
03/02:30pm 35.8 36.6 21.3 43 9.9 ENE 19 32 10 17 1006.1 - 0.0
03/02:00pm 35.5 38.9 22.7 47 8.9 ENE 9 19 5 10 1006.5 - 0.0
03/01:30pm 34.0 36.5 23.1 53 7.6 ENE 15 24 8 13 1006.9 1005.7 0.0
03/01:00pm 33.9 37.4 23.6 55 7.2 ESE 11 19 6 10 1007.3 - 0.0
03/12:30pm 33.3 37.4 23.3 55 7.0 E 7 13 4 7 1007.7 - 0.0
03/12:00pm 32.0 36.1 23.9 62 5.7 ESE 9 19 5 10 1008.2 - 0.0
03/11:30am 32.0 35.6 23.7 61 5.8 ESE 11 17 6 9 1008.4 - 0.0
03/11:00am 31.2 35.5 23.6 64 5.3 SE 7 15 4 8 1008.7 - 0.0
03/10:30am 30.7 34.5 23.5 65 5.0 SE 9 15 5 8 1009.0 1007.8 0.0
03/10:00am 29.9 33.6 23.2 67 4.6 E 9 13 5 7 1009.2 - 0.0
03/09:30am 29.3 32.7 23.4 70 4.1 E 11 15 6 8 1008.8 - 0.0
03/09:00am 29.0 32.6 23.7 73 3.7 E 11 13 6 7 1008.6 - 0.0
03/08:30am 28.6 33.1 24.0 76 3.2 E 7 13 4 7 1008.3 - 0.0
03/08:00am 28.1 32.7 24.1 79 2.8 ESE 7 9 4 5 1007.6 - 0.0
03/07:30am 28.0 32.4 23.8 78 2.9 SE 7 11 4 6 1007.3 1006.1 0.0
03/07:00am 28.1 31.9 23.5 76 3.2 S 9 13 5 7 1007.0 - 0.0
03/06:30am 27.9 32.4 24.0 79 2.7 S 7 9 4 5 1006.8 - 0.0
03/06:00am 27.8 32.3 23.9 79 2.7 S 7 11 4 6 1006.4 - 0.0
03/05:30am 27.7 32.2 24.0 80 2.6 S 7 11 4 6 1005.8 - 0.0
03/05:00am 27.8 31.9 23.9 79 2.7 S 9 13 5 7 1005.4 - 0.0
03/04:30am 27.8 31.8 23.8 79 2.8 S 9 13 5 7 1005.3 1004.1 0.0
03/04:00am 27.6 31.5 24.3 82 2.3 SSE 11 13 6 7 1005.5 - 0.0
03/03:30am 27.8 33.0 24.8 84 2.1 SE 6 9 3 5 1006.0 - 0.0
03/03:00am 28.1 33.2 24.7 82 2.4 E 6 7 3 4 1006.1 - 0.0
03/02:30am 28.4 33.0 24.2 78 2.9 S 7 9 4 5 1006.2 - 0.0
03/02:00am 28.4 33.2 24.4 79 2.8 SSE 7 11 4 6 1006.5 - 0.0
03/01:30am 28.3 33.6 25.2 83 2.2 SSE 7 9 4 5 1006.2 1005.0 0.0
03/01:00am 29.0 34.3 25.0 79 2.8 SE 6 7 3 4 1006.6 - 0.0
03/12:30am 29.5 35.3 25.7 80 2.7 ESE 6 6 3 3 1007.1 - 0.0
03/12:00am 29.4 34.8 25.2 78 3.0 NE 6 7 3 4 1007.4 - 0.0
 
Date/Time
CST
Temp
°C
App
Temp
°C
Dew
Point
Rel
Hum
%
Delta-T
°C
Wind Press
QNH
hPa
Press
MSL
hPa
Rain
since 9 am
mm
Dir
 
Spd
km/h
Gust
km/h
Spd
kts
Gust
kts
02/11:30pm 29.4 34.7 25.3 78 2.9 NE 7 9 4 5 1007.6 - 0.0
02/11:00pm 30.3 35.5 24.8 72 3.9 S 6 9 3 5 1007.2 - 0.0

Other Formats:

Comma delimited format used in spreadsheet applications
http://www.bom.gov.au/fwo/IDD60801/IDD60801.94217.axf

JavaScript Object Notation format (JSON) in row-major order
http://www.bom.gov.au/fwo/IDD60801/IDD60801.94217.json